Time;durP1;ratioP1;P1;durP2;ratioP2;P2;SDS_P1;SDS_P2;PMS_P1;PMS_P2;Temp;Humidity;BMP_temperature;BMP_pressure;BME280_temperature;BME280_humidity;BME280_pressure;Samples;Min_cycle;Max_cycle;Signal;HPM_P1;HPM_P2
2022/10/24 00:02:14;;;;;;;4.43;2.70;;;;;;;14.83;48.91;94581.13;5031709;28;20381;-79
2022/10/24 00:04:39;;;;;;;5.03;2.63;;;;;;;14.83;48.76;94573.88;5032539;28;20037;-79
2022/10/24 00:07:06;;;;;;;5.85;2.22;;;;;;;14.79;48.64;94567.59;5039180;28;20124;-80
2022/10/24 00:09:32;;;;;;;3.92;2.33;;;;;;;14.65;48.72;94542.13;5032406;28;20381;-79
2022/10/24 00:11:58;;;;;;;4.05;2.63;;;;;;;14.81;49.04;94567.28;5031073;28;20319;-78
2022/10/24 00:14:24;;;;;;;7.55;2.58;;;;;;;14.84;48.72;94571.97;5038673;28;20359;-79
2022/10/24 00:16:49;;;;;;;3.25;2.17;;;;;;;14.58;49.13;94535.38;5040797;28;20526;-78
2022/10/24 00:19:14;;;;;;;2.88;1.92;;;;;;;14.81;49.19;94572.63;5031677;28;20029;-77
2022/10/24 00:21:40;;;;;;;3.25;2.55;;;;;;;14.59;49.43;94542.31;5033893;28;20033;-79
2022/10/24 00:24:07;;;;;;;3.47;2.17;;;;;;;14.50;49.33;94522.78;5034235;28;20017;-81
2022/10/24 00:26:33;;;;;;;4.13;2.38;;;;;;;14.62;49.36;94538.19;5032850;28;20017;-79
2022/10/24 00:28:59;;;;;;;3.20;2.30;;;;;;;14.71;49.09;94548.88;5031313;28;20016;-78
2022/10/24 00:31:25;;;;;;;3.22;2.40;;;;;;;14.75;49.32;94558.63;5030019;28;20021;-80
2022/10/24 00:33:50;;;;;;;4.50;2.42;;;;;;;14.66;49.35;94538.34;5032518;28;20032;-78
2022/10/24 00:36:19;;;;;;;3.25;1.92;;;;;;;14.76;49.02;94559.41;5031489;28;20336;-79
2022/10/24 00:38:45;;;;;;;2.75;2.20;;;;;;;14.76;49.24;94562.09;5031146;28;20053;-79
2022/10/24 00:41:18;;;;;;;2.88;2.25;;;;;;;14.76;48.95;94559.41;5031290;28;20033;-78
2022/10/24 00:43:44;;;;;;;2.90;2.10;;;;;;;14.60;49.19;94530.50;5032980;28;20596;-79
2022/10/24 00:46:10;;;;;;;4.72;2.20;;;;;;;14.60;49.12;94530.50;5031760;28;20091;-79
2022/10/24 00:48:38;;;;;;;3.78;2.53;;;;;;;14.77;49.04;94550.25;5035954;28;20112;-78
2022/10/24 00:51:20;;;;;;;3.88;2.45;;;;;;;14.77;49.25;94553.72;5031467;28;20029;-78
2022/10/24 00:53:52;;;;;;;4.28;2.30;;;;;;;14.75;49.00;94549.81;5029507;28;20713;-78
2022/10/24 00:56:22;;;;;;;3.80;2.35;;;;;;;14.62;49.05;94532.84;5029250;28;20032;-78
2022/10/24 00:58:48;;;;;;;2.95;2.15;;;;;;;14.53;49.54;94546.25;5032215;28;20439;-76
2022/10/24 01:01:14;;;;;;;5.40;2.55;;;;;;;14.52;49.29;94555.34;5031185;28;20021;-78
2022/10/24 01:03:40;;;;;;;4.60;2.40;;;;;;;14.59;49.15;94552.22;5032878;28;20033;-80
2022/10/24 01:06:44;;;;;;;4.72;2.97;;;;;;;14.61;49.07;94552.69;5026706;28;20248;-78
2022/10/24 01:09:35;;;;;;;3.83;2.28;;;;;;;14.52;49.05;94563.38;5030267;28;20500;-78
2022/10/24 01:12:17;;;;;;;4.72;2.88;;;;;;;14.49;49.30;94558.69;5029312;28;20032;-78
2022/10/24 01:15:12;;;;;;;3.78;2.13;;;;;;;14.35;49.17;94543.91;5025493;28;20037;-78
2022/10/24 01:17:51;;;;;;;3.05;1.95;;;;;;;14.41;49.39;94554.16;5027143;28;20092;-78
2022/10/24 01:20:41;;;;;;;6.35;2.33;;;;;;;14.39;49.44;94561.69;5029603;28;20039;-77
2022/10/24 01:23:41;;;;;;;4.43;2.60;;;;;;;14.32;49.52;94556.06;5030655;28;20032;-77
2022/10/24 01:26:15;;;;;;;3.88;2.45;;;;;;;14.30;49.52;94558.25;5030122;28;20060;-77
2022/10/24 01:29:18;;;;;;;4.35;2.88;;;;;;;14.22;49.47;94559.06;5031018;28;20056;-79
2022/10/24 01:31:53;;;;;;;5.63;2.78;;;;;;;14.18;49.65;94558.09;5028521;28;20030;-78
2022/10/24 01:34:32;;;;;;;7.65;4.30;;;;;;;14.08;49.88;94566.47;5031175;28;20396;-78
2022/10/24 01:37:05;;;;;;;4.13;3.30;;;;;;;14.06;49.77;94560.66;5029946;28;20088;-78
2022/10/24 01:39:41;;;;;;;7.20;3.85;;;;;;;13.94;49.85;94541.78;5029213;28;20413;-78
2022/10/24 01:42:12;;;;;;;8.57;4.47;;;;;;;13.87;49.67;94533.47;5031501;28;20033;-78
2022/10/24 01:44:46;;;;;;;5.93;4.28;;;;;;;13.97;49.97;94560.66;5035388;28;20799;-78
2022/10/24 01:47:18;;;;;;;7.38;4.13;;;;;;;13.91;49.69;94550.44;5030296;28;20155;-79
2022/10/24 01:49:54;;;;;;;5.80;3.92;;;;;;;13.89;49.97;94563.31;5028564;28;20029;-78
2022/10/24 01:52:20;;;;;;;6.70;4.38;;;;;;;13.77;49.82;94539.13;5036962;28;20477;-78
2022/10/24 01:54:47;;;;;;;9.60;4.13;;;;;;;13.89;49.79;94555.31;5027204;28;20028;-79
2022/10/24 01:57:13;;;;;;;5.88;4.15;;;;;;;13.85;49.97;94549.00;5029729;28;20270;-78
2022/10/24 01:59:48;;;;;;;4.68;2.88;;;;;;;13.82;50.27;94542.41;5027485;28;20021;-77
2022/10/24 02:02:31;;;;;;;3.40;2.45;;;;;;;13.84;50.11;94544.78;5027007;28;20021;-79
2022/10/24 02:05:13;;;;;;;4.18;2.78;;;;;;;13.82;50.08;94552.31;5028161;28;20846;-77
2022/10/24 02:07:41;;;;;;;4.70;2.47;;;;;;;13.73;50.09;94544.31;5028808;28;20029;-78
2022/10/24 02:10:10;;;;;;;4.57;2.30;;;;;;;13.41;50.19;94494.75;5028204;28;20370;-79
2022/10/24 02:12:40;;;;;;;4.85;2.33;;;;;;;13.69;50.52;94560.19;5026023;28;20414;-79
2022/10/24 02:15:13;;;;;;;4.47;2.28;;;;;;;13.71;50.46;94551.84;5028791;28;20020;-78
2022/10/24 02:17:38;;;;;;;3.83;2.55;;;;;;;13.60;50.18;94538.00;5026483;28;20021;-79
2022/10/24 02:20:05;;;;;;;3.08;2.45;;;;;;;13.66;50.50;94560.81;5030617;28;20025;-79
2022/10/24 02:23:18;;;;;;;3.38;2.55;;;;;;;13.62;50.80;94554.53;5029653;28;20031;-78
2022/10/24 02:25:49;;;;;;;5.18;2.17;;;;;;;13.55;50.70;94551.50;4989368;28;20617;-79
2022/10/24 02:28:32;;;;;;;3.35;2.58;;;;;;;13.29;50.70;94508.75;4980823;28;20038;-77
2022/10/24 02:31:03;;;;;;;3.33;2.50;;;;;;;13.58;50.73;94553.56;5016189;28;20481;-78
2022/10/24 02:33:30;;;;;;;5.95;2.63;;;;;;;13.42;50.87;94528.38;5029685;28;20146;-78
2022/10/24 02:35:56;;;;;;;4.47;2.80;;;;;;;13.51;50.85;94545.22;5028056;28;20045;-79
2022/10/24 02:38:30;;;;;;;5.55;2.85;;;;;;;13.39;50.96;94518.34;5030808;28;20060;-78
2022/10/24 02:40:57;;;;;;;4.80;2.22;;;;;;;13.58;51.24;94550.88;5028134;28;20025;-78
2022/10/24 02:43:25;;;;;;;11.40;2.45;;;;;;;13.61;51.02;94552.94;5027922;28;20666;-77
2022/10/24 02:45:53;;;;;;;4.30;2.33;;;;;;;13.48;51.00;94537.81;5028739;28;20040;-78
2022/10/24 02:48:24;;;;;;;5.70;2.60;;;;;;;13.58;50.97;94553.56;5029224;28;20438;-77
2022/10/24 02:50:50;;;;;;;5.22;2.22;;;;;;;13.53;51.05;94539.56;5030882;28;20035;-80
2022/10/24 02:53:19;;;;;;;9.15;3.30;;;;;;;13.37;51.00;94514.38;5029577;28;20542;-79
2022/10/24 02:55:45;;;;;;;7.43;2.97;;;;;;;13.45;51.17;94538.44;5028190;28;20147;-78
2022/10/24 02:58:10;;;;;;;6.20;3.63;;;;;;;13.41;50.88;94528.69;5030256;28;20461;-78
2022/10/24 03:00:36;;;;;;;4.80;2.97;;;;;;;13.43;51.22;94529.19;5027322;28;20376;-78
2022/10/24 03:03:01;;;;;;;5.10;2.80;;;;;;;13.57;51.27;94551.97;5028677;28;20094;-79
2022/10/24 03:05:27;;;;;;;4.28;2.65;;;;;;;13.57;51.01;94543.16;5030016;28;20032;-79
2022/10/24 03:07:52;;;;;;;2.92;1.90;;;;;;;13.40;51.10;94524.47;5029286;28;20094;-78
2022/10/24 03:10:17;;;;;;;3.72;2.30;;;;;;;13.03;51.07;94483.06;5027757;28;20108;-77
2022/10/24 03:12:43;;;;;;;11.57;3.10;;;;;;;13.33;50.96;94522.25;5028319;28;20497;-77
2022/10/24 03:15:09;;;;;;;5.30;2.53;;;;;;;13.20;51.32;94517.84;5029110;28;20087;-77
2022/10/24 03:17:34;;;;;;;5.13;3.15;;;;;;;13.43;51.12;94551.34;5028996;28;20021;-77
2022/10/24 03:19:59;;;;;;;5.85;3.00;;;;;;;13.24;51.31;94526.81;5030161;28;20106;-77
2022/10/24 03:22:25;;;;;;;6.60;2.60;;;;;;;13.42;51.08;94543.63;5030582;28;20500;-79
2022/10/24 03:24:50;;;;;;;7.32;3.10;;;;;;;13.16;50.86;94511.53;5030894;28;20056;-78
2022/10/24 03:27:16;;;;;;;5.72;3.58;;;;;;;13.36;51.01;94544.88;5028727;28;20083;-77
2022/10/24 03:29:41;;;;;;;10.85;5.45;;;;;;;13.13;51.29;94517.50;5034762;28;20481;-77
2022/10/24 03:32:06;;;;;;;7.72;4.07;;;;;;;13.28;51.59;94549.13;5028061;28;20483;-76
2022/10/24 03:34:32;;;;;;;7.57;4.75;;;;;;;13.27;51.40;94547.53;5025805;28;20662;-77
2022/10/24 03:36:57;;;;;;;8.15;5.13;;;;;;;12.81;51.15;94471.41;5028131;28;20036;-76
2022/10/24 03:39:23;;;;;;;7.03;4.10;;;;;;;13.09;51.34;94521.91;5028591;28;20059;-78
2022/10/24 03:41:48;;;;;;;6.32;3.15;;;;;;;12.99;51.70;94514.19;5028347;28;20035;-78
2022/10/24 03:44:14;;;;;;;6.18;3.50;;;;;;;13.15;51.64;94548.13;5028668;28;20423;-77
2022/10/24 03:46:39;;;;;;;5.15;3.05;;;;;;;13.13;51.50;94550.34;5029631;28;20029;-77
2022/10/24 03:49:05;;;;;;;4.80;3.15;;;;;;;12.93;51.54;94520.75;5034573;28;20034;-77
2022/10/24 03:51:30;;;;;;;4.22;3.47;;;;;;;12.99;51.79;94530.97;5026318;28;20020;-77
2022/10/24 03:53:56;;;;;;;7.95;3.58;;;;;;;12.68;52.13;94515.03;5029084;28;20021;-78
2022/10/24 03:56:21;;;;;;;4.55;3.67;;;;;;;12.78;52.82;94545.97;5029948;28;20714;-78
2022/10/24 03:58:46;;;;;;;6.80;4.28;;;;;;;12.78;52.47;94533.44;5028122;28;20137;-78
2022/10/24 04:01:16;;;;;;;5.88;3.47;;;;;;;12.77;52.20;94531.84;5028367;28;20025;-79
2022/10/24 04:03:45;;;;;;;5.82;3.33;;;;;;;12.80;52.30;94533.91;5027415;28;20045;-78
2022/10/24 04:06:11;;;;;;;4.88;3.28;;;;;;;12.92;52.17;94543.19;5042852;28;20370;-78
2022/10/24 04:08:37;;;;;;;5.20;3.42;;;;;;;12.95;52.29;94550.59;5028558;28;20037;-79
2022/10/24 04:11:04;;;;;;;5.38;3.33;;;;;;;12.95;52.26;94539.94;5028994;28;20029;-79
2022/10/24 04:13:31;;;;;;;5.68;3.78;;;;;;;12.92;52.25;94545.88;5026842;28;20060;-78
2022/10/24 04:15:56;;;;;;;7.22;4.20;;;;;;;12.92;52.12;94537.84;5028445;28;20469;-79
2022/10/24 04:18:21;;;;;;;11.32;4.00;;;;;;;12.66;52.50;94492.41;5027089;28;20087;-79
2022/10/24 04:20:47;;;;;;;5.38;3.60;;;;;;;12.87;52.18;94528.91;5029668;28;20025;-79
2022/10/24 04:23:12;;;;;;;7.60;3.88;;;;;;;12.83;52.36;94538.63;5027172;28;20025;-78
2022/10/24 04:25:39;;;;;;;6.45;3.88;;;;;;;12.82;52.30;94539.72;5027449;28;20569;-80
2022/10/24 04:28:05;;;;;;;8.85;3.28;;;;;;;12.81;52.38;94535.47;5030133;28;20033;-79
2022/10/24 04:30:30;;;;;;;6.38;3.50;;;;;;;12.81;52.17;94546.16;5025544;28;20481;-79
2022/10/24 04:32:56;;;;;;;7.15;3.13;;;;;;;12.80;52.58;94543.81;5028226;28;20144;-79
2022/10/24 04:35:22;;;;;;;5.32;3.38;;;;;;;12.72;52.73;94537.31;5028207;28;20033;-78
2022/10/24 04:37:47;;;;;;;5.57;3.47;;;;;;;12.72;52.60;94539.19;5024707;28;20060;-78
2022/10/24 04:40:13;;;;;;;4.85;3.15;;;;;;;12.69;52.68;94542.50;5028607;28;20033;-78
2022/10/24 04:42:39;;;;;;;9.40;3.72;;;;;;;12.78;52.66;94549.44;5028996;28;20370;-79
2022/10/24 04:45:05;;;;;;;7.78;3.30;;;;;;;12.75;52.74;94552.75;5028028;28;20094;-79
2022/10/24 04:47:31;;;;;;;7.38;2.60;;;;;;;12.58;52.88;94525.16;5030270;28;20139;-79
2022/10/24 04:49:56;;;;;;;4.25;3.17;;;;;;;12.75;52.72;94555.41;5029370;28;20529;-79
2022/10/24 04:52:22;;;;;;;11.45;4.28;;;;;;;12.63;52.87;94533.06;5034385;28;20033;-79
2022/10/24 04:54:47;;;;;;;8.40;5.40;;;;;;;12.60;52.96;94539.81;5031998;28;20025;-78
2022/10/24 04:57:12;;;;;;;15.32;6.15;;;;;;;12.56;52.98;94543.38;5031860;28;20499;-79
2022/10/24 04:59:38;;;;;;;8.75;5.05;;;;;;;12.58;53.23;94549.97;5032708;28;20029;-79
2022/10/24 05:02:03;;;;;;;12.07;6.05;;;;;;;12.49;53.33;94527.78;5032052;28;20029;-79
2022/10/24 05:04:28;;;;;;;7.25;4.50;;;;;;;12.56;53.30;94549.50;5030716;28;20026;-78
2022/10/24 05:06:54;;;;;;;5.68;3.75;;;;;;;12.55;53.58;94544.44;5033806;28;20090;-79
2022/10/24 05:09:19;;;;;;;15.20;4.50;;;;;;;12.48;53.58;94531.53;5030387;28;20030;-78
2022/10/24 05:11:45;;;;;;;5.22;3.63;;;;;;;12.67;53.50;94561.47;5031837;28;20055;-78
2022/10/24 05:14:10;;;;;;;9.15;4.13;;;;;;;12.50;53.42;94531.25;5030099;28;20290;-79
2022/10/24 05:16:36;;;;;;;6.50;3.28;;;;;;;12.58;53.77;94544.66;5031923;28;20025;-78
2022/10/24 05:19:01;;;;;;;7.50;3.20;;;;;;;12.55;53.91;94537.25;5030199;28;20669;-79
2022/10/24 05:21:26;;;;;;;7.07;3.83;;;;;;;12.63;53.99;94549.84;5031137;28;20112;-79
2022/10/24 05:23:52;;;;;;;6.38;2.92;;;;;;;12.69;53.82;94556.63;5031149;28;20021;-79
2022/10/24 05:26:17;;;;;;;6.25;3.58;;;;;;;12.77;53.85;94566.53;5030023;28;20044;-79
2022/10/24 05:28:43;;;;;;;15.80;3.88;;;;;;;12.66;53.90;94548.47;5031235;28;20091;-79
2022/10/24 05:31:08;;;;;;;15.50;4.47;;;;;;;12.72;54.01;94548.00;5029045;28;20029;-78
2022/10/24 05:33:34;;;;;;;16.05;4.47;;;;;;;12.77;53.96;94550.53;5031173;28;20473;-79
2022/10/24 05:35:59;;;;;;;7.18;3.63;;;;;;;12.86;54.12;94559.34;5029711;28;20124;-79
2022/10/24 05:38:25;;;;;;;9.43;3.70;;;;;;;12.85;53.94;94560.47;5029364;28;20055;-79
2022/10/24 05:40:51;;;;;;;7.00;4.00;;;;;;;12.84;53.98;94550.88;5029657;28;20038;-80
2022/10/24 05:43:16;;;;;;;11.38;4.30;;;;;;;12.76;54.10;94535.59;5029475;28;20028;-80
2022/10/24 05:45:42;;;;;;;7.38;3.85;;;;;;;12.83;54.25;94541.28;5030996;28;20892;-80
2022/10/24 05:48:07;;;;;;;6.40;4.50;;;;;;;13.00;54.43;94569.16;5031972;28;20021;-79
2022/10/24 05:50:33;;;;;;;9.20;5.35;;;;;;;12.99;54.59;94560.34;5030857;28;20031;-80
2022/10/24 05:52:59;;;;;;;9.18;5.45;;;;;;;12.72;54.34;94510.63;5029760;28;20040;-79
2022/10/24 05:55:25;;;;;;;12.70;5.57;;;;;;;13.20;54.28;94573.94;5030020;28;20036;-78
2022/10/24 05:57:50;;;;;;;11.07;5.97;;;;;;;13.25;54.48;94585.22;5029404;28;20092;-80
2022/10/24 06:00:16;;;;;;;8.48;6.07;;;;;;;13.23;54.91;94578.66;5031583;28;20025;-79
2022/10/24 06:02:42;;;;;;;13.27;5.93;;;;;;;13.27;54.89;94582.25;5028600;28;20048;-80
2022/10/24 06:05:08;;;;;;;12.30;6.00;;;;;;;13.29;54.86;94578.19;5029289;28;20021;-79
2022/10/24 06:07:35;;;;;;;13.45;7.45;;;;;;;13.42;54.54;94587.16;5032010;28;20033;-78
2022/10/24 06:10:02;;;;;;;13.73;6.82;;;;;;;13.42;54.57;94605.88;5030772;28;20033;-79
2022/10/24 06:12:27;;;;;;;21.63;9.63;;;;;;;13.23;54.37;94578.66;5029747;28;20029;-78
2022/10/24 06:14:57;;;;;;;18.42;8.80;;;;;;;13.26;54.41;94584.13;5028950;28;20025;-80
2022/10/24 06:17:22;;;;;;;20.08;9.77;;;;;;;13.27;54.82;94579.59;5030559;28;20507;-78
2022/10/24 06:19:49;;;;;;;20.55;10.23;;;;;;;13.30;54.61;94562.94;5023189;28;20014;-79
2022/10/24 06:22:15;;;;;;;26.95;10.30;;;;;;;13.62;54.36;94596.50;5017137;28;20572;-77
2022/10/24 06:24:40;;;;;;;21.85;10.73;;;;;;;13.63;54.12;94584.72;5026709;28;20074;-77
2022/10/24 06:27:06;;;;;;;24.42;10.32;;;;;;;13.69;53.55;94597.59;5027817;28;20029;-79
2022/10/24 06:29:32;;;;;;;13.02;8.02;;;;;;;13.70;53.50;94593.03;5028798;28;21177;-78
2022/10/24 06:31:57;;;;;;;13.77;7.57;;;;;;;13.71;53.35;94584.72;5028752;28;20041;-78
2022/10/24 06:34:23;;;;;;;16.45;8.40;;;;;;;13.75;53.59;94585.66;5025721;28;20033;-79
2022/10/24 06:36:48;;;;;;;19.90;9.77;;;;;;;13.70;53.38;94567.09;5022484;28;20095;-80
2022/10/24 06:39:13;;;;;;;20.63;9.43;;;;;;;13.54;53.62;94544.59;5013497;28;20049;-80
2022/10/24 06:41:39;;;;;;;24.10;9.13;;;;;;;13.75;53.31;94572.28;5021395;28;20048;-78
2022/10/24 06:44:04;;;;;;;21.40;8.65;;;;;;;13.97;52.83;94590.09;5026748;28;20029;-78
2022/10/24 06:46:30;;;;;;;19.50;8.27;;;;;;;14.06;52.43;94590.06;5027347;28;20503;-78
2022/10/24 06:48:55;;;;;;;19.33;10.63;;;;;;;13.96;52.88;94577.81;5026435;28;20046;-78
2022/10/24 06:51:22;;;;;;;16.40;9.88;;;;;;;14.17;52.60;94594.78;5025727;28;20033;-79
2022/10/24 06:53:47;;;;;;;18.60;10.32;;;;;;;14.23;52.37;94590.03;5025384;28;20033;-78
2022/10/24 06:56:13;;;;;;;18.63;10.05;;;;;;;14.32;51.93;94603.44;5023276;28;20483;-78
2022/10/24 06:58:39;;;;;;;33.13;10.60;;;;;;;14.44;51.63;94619.63;5023914;28;20045;-78
2022/10/24 07:01:12;;;;;;;16.38;9.73;;;;;;;14.37;51.61;94593.34;5021310;28;20385;-78
2022/10/24 07:03:38;;;;;;;23.17;9.32;;;;;;;14.59;51.41;94613.78;5022145;28;20563;-78
2022/10/24 07:06:15;;;;;;;17.77;10.30;;;;;;;14.54;51.22;94593.34;5023464;28;20017;-78
2022/10/24 07:08:40;;;;;;;18.83;10.13;;;;;;;14.57;50.80;94590.00;5024315;28;20561;-78
2022/10/24 07:11:06;;;;;;;19.58;10.38;;;;;;;14.77;50.81;94619.88;5023335;28;20060;-79
2022/10/24 07:13:31;;;;;;;28.35;11.38;;;;;;;14.72;51.07;94607.44;5025339;28;20409;-78
2022/10/24 07:15:57;;;;;;;24.58;10.93;;;;;;;14.89;50.99;94614.66;5021835;28;20041;-78
2022/10/24 07:18:22;;;;;;;16.83;8.85;;;;;;;14.87;50.86;94622.22;5024277;28;20029;-79
2022/10/24 07:20:48;;;;;;;14.75;9.05;;;;;;;14.71;50.88;94589.84;5022741;28;20018;-79
2022/10/24 07:23:13;;;;;;;17.55;9.45;;;;;;;14.86;50.79;94613.38;5025127;28;20101;-78
2022/10/24 07:25:39;;;;;;;15.50;9.35;;;;;;;14.99;50.73;94611.63;5021949;28;20057;-79
2022/10/24 07:28:06;;;;;;;16.40;9.05;;;;;;;14.90;50.45;94576.06;5024339;28;20035;-79
2022/10/24 07:30:32;;;;;;;20.30;9.65;;;;;;;15.08;50.01;94598.97;5025471;28;20415;-78
2022/10/24 07:32:57;;;;;;;15.63;8.98;;;;;;;14.64;50.16;94567.31;5023896;28;20444;-78
2022/10/24 07:35:23;;;;;;;18.95;8.63;;;;;;;15.02;50.18;94603.72;5024386;28;20468;-78
2022/10/24 07:37:48;;;;;;;11.27;8.35;;;;;;;14.89;49.11;94563.78;5023519;28;20287;-78
2022/10/24 07:40:15;;;;;;;13.60;8.23;;;;;;;15.00;49.87;94581.84;5010218;28;20053;-78
2022/10/24 07:42:41;;;;;;;17.10;8.27;;;;;;;15.28;49.55;94614.34;5022277;28;20484;-78
2022/10/24 07:45:07;;;;;;;13.32;7.47;;;;;;;15.29;48.72;94615.91;5024199;28;20023;-78
2022/10/24 07:47:32;;;;;;;13.10;7.28;;;;;;;15.39;49.03;94625.50;5024393;28;20724;-79
2022/10/24 07:49:58;;;;;;;18.73;8.15;;;;;;;14.96;48.48;94564.06;5027202;28;20381;-79
2022/10/24 07:52:23;;;;;;;14.90;8.85;;;;;;;15.33;48.59;94605.31;5022328;28;20120;-79
2022/10/24 07:54:52;;;;;;;11.48;7.35;;;;;;;15.45;48.48;94608.91;5022992;28;20402;-78
2022/10/24 07:57:17;;;;;;;15.65;8.18;;;;;;;15.56;48.28;94605.84;5023280;28;20033;-78
2022/10/24 07:59:43;;;;;;;13.68;7.50;;;;;;;15.62;48.47;94599.97;5020741;28;20037;-78
2022/10/24 08:02:10;;;;;;;16.08;8.93;;;;;;;15.49;48.13;94571.53;5017448;28;20040;-78
2022/10/24 08:04:36;;;;;;;12.63;8.55;;;;;;;15.84;47.90;94609.63;5022105;28;20548;-78
2022/10/24 08:07:01;;;;;;;13.27;8.48;;;;;;;15.70;48.01;94592.97;5025273;28;20029;-79
2022/10/24 08:09:27;;;;;;;11.85;7.97;;;;;;;15.78;47.67;94589.47;5022680;28;20556;-78
2022/10/24 08:11:52;;;;;;;13.73;8.43;;;;;;;15.94;47.68;94601.16;5025393;28;20125;-78
2022/10/24 08:14:17;;;;;;;22.63;8.10;;;;;;;16.00;47.03;94597.19;5022635;28;20104;-79
2022/10/24 08:16:43;;;;;;;10.48;6.85;;;;;;;15.99;46.85;94582.19;5024166;28;20037;-79
2022/10/24 08:19:10;;;;;;;14.68;8.45;;;;;;;16.01;47.67;94596.06;5023245;28;20400;-79
2022/10/24 08:21:36;;;;;;;14.65;6.55;;;;;;;15.79;47.95;94543.53;5024662;28;20136;-78
2022/10/24 08:24:01;;;;;;;14.32;7.80;;;;;;;16.19;47.54;94600.19;5029251;28;20403;-80
2022/10/24 08:26:27;;;;;;;15.07;6.57;;;;;;;15.97;47.29;94565.66;5026668;28;20481;-78
2022/10/24 08:28:54;;;;;;;11.13;7.25;;;;;;;16.13;47.41;94568.53;5028809;28;20036;-78
2022/10/24 08:31:21;;;;;;;19.02;7.00;;;;;;;16.10;46.90;94596.78;5026473;28;20591;-78
2022/10/24 08:33:49;;;;;;;10.73;6.90;;;;;;;16.00;47.31;94588.34;5028861;28;20020;-78
2022/10/24 08:36:30;;;;;;;16.77;7.18;;;;;;;15.71;47.41;94562.38;5022776;28;20512;-80
2022/10/24 08:38:56;;;;;;;16.48;6.65;;;;;;;15.96;47.09;94564.06;5027645;28;20827;-78
2022/10/24 08:41:42;;;;;;;15.20;6.53;;;;;;;16.17;47.23;94589.00;5027582;28;20114;-78
2022/10/24 08:44:26;;;;;;;14.90;6.95;;;;;;;15.90;47.21;94590.31;5028654;28;20061;-78
2022/10/24 08:46:58;;;;;;;11.55;6.38;;;;;;;15.80;47.35;94541.63;5023512;28;20900;-78
2022/10/24 08:49:48;;;;;;;16.08;7.43;;;;;;;16.03;47.32;94580.44;5027990;28;20131;-79
2022/10/24 08:52:22;;;;;;;14.80;6.80;;;;;;;15.95;47.44;94575.13;5042565;28;20048;-77
2022/10/24 08:54:50;;;;;;;15.15;7.72;;;;;;;16.10;47.31;94575.31;5028500;28;20031;-78
2022/10/24 08:57:23;;;;;;;13.90;7.10;;;;;;;15.99;47.66;94570.69;5026229;28;20036;-79
2022/10/24 08:59:50;;;;;;;13.63;6.20;;;;;;;16.17;47.93;94561.38;5027876;28;20025;-79
2022/10/24 09:02:24;;;;;;;13.95;8.85;;;;;;;16.10;47.99;94559.22;5039992;28;20473;-78
2022/10/24 09:05:36;;;;;;;21.50;8.82;;;;;;;16.31;47.75;94562.69;5029435;28;20075;-78
2022/10/24 09:08:17;;;;;;;15.55;9.25;;;;;;;16.47;47.39;94560.16;5025222;28;20160;-80
2022/10/24 09:10:59;;;;;;;26.00;9.77;;;;;;;16.42;47.37;94548.84;5023749;28;20634;-77
2022/10/24 09:13:26;;;;;;;19.60;10.10;;;;;;;16.44;47.15;94530.50;5028703;28;20055;-77
2022/10/24 09:15:52;;;;;;;19.75;10.32;;;;;;;16.70;46.58;94552.50;5020907;28;20450;-78
2022/10/24 09:18:26;;;;;;;15.00;9.30;;;;;;;16.79;47.65;94547.00;5021473;28;20036;-79
2022/10/24 09:20:52;;;;;;;17.30;9.82;;;;;;;16.91;46.30;94555.09;5015536;28;20045;-79
2022/10/24 09:23:20;;;;;;;13.15;9.10;;;;;;;16.93;46.10;94547.47;5020235;28;20033;-77
2022/10/24 09:25:53;;;;;;;19.60;10.77;;;;;;;17.07;46.13;94556.75;5016262;28;20105;-79
2022/10/24 09:28:19;;;;;;;15.35;9.93;;;;;;;16.98;46.16;94529.22;5028648;28;20025;-78
2022/10/24 09:30:45;;;;;;;16.10;9.65;;;;;;;17.18;45.58;94555.25;5024453;28;20393;-77
2022/10/24 09:33:33;;;;;;;15.15;10.05;;;;;;;17.28;45.72;94554.00;5026485;28;20075;-78
2022/10/24 09:36:02;;;;;;;30.02;11.38;;;;;;;17.29;45.30;94538.66;5025311;28;20086;-78
2022/10/24 09:38:36;;;;;;;17.80;9.70;;;;;;;17.37;45.22;94548.50;5023730;28;20040;-80
2022/10/24 09:41:27;;;;;;;13.60;8.98;;;;;;;17.40;45.51;94547.84;5024400;28;20026;-79
2022/10/24 09:43:57;;;;;;;18.35;9.73;;;;;;;17.40;45.50;94545.94;5024653;28;20020;-78
2022/10/24 09:46:33;;;;;;;17.33;9.57;;;;;;;17.58;45.50;94546.47;5021556;28;20389;-78
2022/10/24 09:49:05;;;;;;;16.52;9.48;;;;;;;17.69;44.88;94539.50;5027529;28;20025;-79
2022/10/24 09:51:35;;;;;;;19.60;10.23;;;;;;;17.71;44.78;94529.16;5019510;28;20704;-79
2022/10/24 09:54:19;;;;;;;21.40;11.27;;;;;;;17.80;44.70;94529.81;5028227;28;20032;-80
2022/10/24 09:56:48;;;;;;;21.02;10.50;;;;;;;17.87;45.31;94532.72;5034443;28;20460;-78
2022/10/24 09:59:25;;;;;;;17.65;10.05;;;;;;;17.85;44.62;94528.78;5025972;28;20026;-79
2022/10/24 10:01:51;;;;;;;17.73;10.38;;;;;;;17.66;44.89;94515.94;5025430;28;20150;-79
2022/10/24 10:04:17;;;;;;;14.38;9.02;;;;;;;17.78;44.75;94517.84;5025232;28;20279;-80
2022/10/24 10:06:46;;;;;;;19.55;10.00;;;;;;;17.89;44.43;94527.75;5022926;28;20083;-79
2022/10/24 10:09:23;;;;;;;17.48;10.18;;;;;;;17.79;44.37;94508.63;5023651;28;20665;-78
2022/10/24 10:11:55;;;;;;;14.32;8.80;;;;;;;18.10;44.28;94529.50;5027736;28;20021;-78
2022/10/24 10:14:23;;;;;;;16.23;9.43;;;;;;;18.01;43.49;94508.13;5031438;28;20144;-79
2022/10/24 10:16:58;;;;;;;14.30;8.75;;;;;;;17.78;44.15;94483.63;5026960;28;20013;-78
2022/10/24 10:19:24;;;;;;;13.43;8.70;;;;;;;18.14;44.46;94515.00;5021053;28;20025;-79
2022/10/24 10:21:58;;;;;;;14.52;8.15;;;;;;;18.14;44.17;94503.50;5017905;28;20134;-80
2022/10/24 10:24:36;;;;;;;20.47;7.57;;;;;;;18.19;43.93;94500.53;5015547;28;20067;-79
2022/10/24 10:27:35;;;;;;;15.93;8.57;;;;;;;18.07;43.14;94469.09;5018253;28;20468;-79
2022/10/24 10:30:15;;;;;;;15.15;7.63;;;;;;;18.21;43.52;94506.34;5029635;28;20032;-79
2022/10/24 10:32:53;;;;;;;17.10;8.05;;;;;;;18.25;43.58;94505.31;5017467;28;20068;-78
2022/10/24 10:35:25;;;;;;;17.02;6.90;;;;;;;18.19;43.59;94478.97;5021582;28;20512;-78
2022/10/24 10:38:13;;;;;;;12.85;7.82;;;;;;;18.17;42.90;94473.19;5019748;28;20636;-78
2022/10/24 10:40:43;;;;;;;13.98;7.25;;;;;;;18.15;43.30;94478.13;5018130;28;20029;-77
2022/10/24 10:43:31;;;;;;;13.02;8.40;;;;;;;18.41;43.13;94499.97;5017189;28;20032;-78
2022/10/24 10:46:21;;;;;;;13.40;6.35;;;;;;;18.47;43.58;94487.81;5024086;28;20819;-78
2022/10/24 10:49:11;;;;;;;10.07;5.97;;;;;;;18.62;44.36;94486.25;5025919;28;20036;-77
2022/10/24 10:52:04;;;;;;;14.75;6.50;;;;;;;18.69;42.46;94481.81;5030412;28;20090;-78
2022/10/24 10:54:51;;;;;;;10.25;5.65;;;;;;;18.81;42.55;94484.47;5021676;28;20063;-79
2022/10/24 10:57:41;;;;;;;9.45;5.57;;;;;;;18.83;42.22;94459.84;5018031;28;20047;-79
2022/10/24 11:00:16;;;;;;;13.27;5.10;;;;;;;18.92;42.01;94463.13;5024283;28;20518;-78
2022/10/24 11:03:00;;;;;;;8.18;5.05;;;;;;;18.87;41.60;94452.66;5017724;28;20079;-78
2022/10/24 11:06:03;;;;;;;8.82;4.70;;;;;;;18.99;42.30;94462.53;5022218;28;20401;-78
2022/10/24 11:08:43;;;;;;;9.07;5.28;;;;;;;19.09;41.86;94462.00;5020226;28;20037;-78
2022/10/24 11:11:17;;;;;;;12.27;5.47;;;;;;;19.16;42.25;94470.25;5019900;28;20408;-79
2022/10/24 11:14:04;;;;;;;15.02;5.53;;;;;;;19.18;41.57;94454.50;5017383;28;20033;-78
2022/10/24 11:16:31;;;;;;;12.20;4.95;;;;;;;19.02;41.68;94437.59;5021078;28;20033;-78
2022/10/24 11:19:04;;;;;;;7.43;4.43;;;;;;;19.24;41.44;94432.31;5018140;28;20384;-78
2022/10/24 11:21:32;;;;;;;5.32;3.80;;;;;;;19.24;41.28;94429.59;5019622;28;20029;-79
2022/10/24 11:24:12;;;;;;;10.15;4.75;;;;;;;19.39;40.86;94448.78;5023657;28;20443;-79
2022/10/24 11:26:57;;;;;;;6.88;4.55;;;;;;;19.49;41.18;94443.66;5029489;28;20035;-79
2022/10/24 11:29:33;;;;;;;12.18;4.43;;;;;;;19.30;40.80;94422.03;5022033;28;20037;-78
2022/10/24 11:32:13;;;;;;;10.15;4.38;;;;;;;19.43;41.29;94423.44;5024123;28;20100;-79
2022/10/24 11:34:45;;;;;;;11.63;4.10;;;;;;;19.58;41.21;94438.03;5024256;28;20079;-80
2022/10/24 11:37:19;;;;;;;8.95;5.35;;;;;;;19.73;40.80;94435.28;5024062;28;20045;-78
2022/10/24 11:40:03;;;;;;;6.07;4.13;;;;;;;19.69;40.27;94429.03;5037832;28;20143;-78
2022/10/24 11:42:47;;;;;;;7.80;3.63;;;;;;;19.85;40.39;94425.47;5031245;28;20384;-78
2022/10/24 11:45:20;;;;;;;9.90;4.53;;;;;;;19.94;40.23;94424.13;5018605;28;20018;-79